M I D A S
Marine Information and Data Acquisition System
Tripno 313 of the Zeeleeuw from 2002-04-16 07:30:55 to 2002-04-16 14:15:32
Back to CruiseResearch ActivitiesStationsMapUnderway DataData graphs

EquipmentUnitsComments
TimeDGPSUTC
LatitudeDGPSDM.mWGS84
LongitudeDGPSDM.mWGS84
SpeedMeteo Stationm/sRelative wind speed
DirectionMeteo StationdegRelative wind direction
TemperatureMeteo Stationdeg CelciusAir temperature
PressureMeteo StationPaAtmospheric pressure
HumidityMeteo Station%Relative humidity
Missing or incorrect values are displayed as -999
Metereological data collected by the RV Zeeleeuw from 2002-04-16 07:30:55 to 2002-04-16 14:15:32
Time Latitude Longitude Speed Direction Temperature Pressure Humidity
2002-04-16 07:31 51°13.686 2°55.904 4.5 8 8.5 101620 75
2002-04-16 07:32 51°13.691 2°55.86 5 351 8.5 101620 75
2002-04-16 07:33 51°13.689 2°55.79 1.6 357 8.4 101630 75
2002-04-16 07:34 51°13.687 2°55.754 7.6 293 8.4 101620 76
2002-04-16 07:35 51°13.696 2°55.767 5.6 293 8.5 101620 76
2002-04-16 07:36 51°13.723 2°55.747 7 225 8.5 101610 76
2002-04-16 07:37 51°13.819 2°55.655 8.9 228 8.5 101610 77
2002-04-16 07:38 51°13.911 2°55.59 8.6 226 8.5 101620 77
2002-04-16 07:39 51°13.996 2°55.527 9.4 225 8.5 101620 77
2002-04-16 07:40 51°14.109 2°55.436 10.3 229 8.4 101610 77
2002-04-16 07:41 51°14.241 2°55.288 9.8 222 8.5 101620 77
2002-04-16 07:42 51°14.348 2°55.068 11.2 200 8.4 101620 78
2002-04-16 07:43 51°14.378 2°54.792 8.9 194 8.4 101610 77
2002-04-16 07:44 51°14.366 2°54.47 8.5 194 8.3 101610 78
2002-04-16 07:45 51°14.282 2°54.15 8 185 8.4 101620 78
2002-04-16 07:46 51°14.175 2°53.824 7.6 182 8.3 101620 77
2002-04-16 07:47 51°14.065 2°53.489 8.5 188 8.3 101620 78
2002-04-16 07:48 51°13.949 2°53.152 8.6 187 8.3 101620 78
2002-04-16 07:49 51°13.831 2°52.811 7.3 181 8.3 101620 77
2002-04-16 07:50 51°13.711 2°52.467 6.9 179 8.3 101620 76
2002-04-16 07:51 51°13.593 2°52.122 10.1 192 8.3 101620 77
2002-04-16 07:52 51°13.475 2°51.776 8.7 184 8.3 101630 77
2002-04-16 07:53 51°13.358 2°51.427 6.8 183 8.3 101630 75
2002-04-16 07:54 51°13.239 2°51.078 8.6 191 8.4 101630 76
2002-04-16 07:55 51°13.12 2°50.728 9.8 188 8.4 101630 76
2002-04-16 07:56 51°13.002 2°50.38 7.5 186 8.4 101630 75
2002-04-16 07:57 51°12.885 2°50.034 7.8 186 8.4 101640 76
2002-04-16 07:58 51°12.768 2°49.688 8.5 189 8.4 101630 76
2002-04-16 07:59 51°12.656 2°49.333 9.7 191 8.4 101630 76
2002-04-16 08:00 51°12.545 2°48.977 9.7 193 8.4 101630 75
2002-04-16 08:01 51°12.435 2°48.62 8.2 190 8.4 101630 75
2002-04-16 08:02 51°12.324 2°48.263 8.9 199 8.4 101630 75
2002-04-16 08:03 51°12.214 2°47.909 8.7 189 8.4 101640 75
2002-04-16 08:04 51°12.104 2°47.553 7.9 182 8.4 101630 74
2002-04-16 08:05 51°11.994 2°47.195 8.7 192 8.4 101640 73
2002-04-16 08:06 51°11.885 2°46.836 8.2 190 8.5 101640 74
2002-04-16 08:07 51°11.775 2°46.478 7.2 183 8.5 101640 74
2002-04-16 08:08 51°11.667 2°46.119 8.5 193 8.5 101640 73
2002-04-16 08:09 51°11.558 2°45.761 8.7 190 8.5 101640 73
2002-04-16 08:10 51°11.448 2°45.403 7.4 188 8.5 101650 73
2002-04-16 08:11 51°11.34 2°45.044 8.6 195 8.5 101640 73
2002-04-16 08:12 51°11.231 2°44.684 8.8 189 8.6 101650 73
2002-04-16 08:13 51°11.122 2°44.323 9.5 190 8.5 101640 72
2002-04-16 08:14 51°11.015 2°43.963 9 192 8.5 101650 72
2002-04-16 08:15 51°10.907 2°43.604 9.4 192 8.6 101650 73
2002-04-16 08:16 51°10.799 2°43.247 9.5 192 8.5 101650 72
2002-04-16 08:17 51°10.695 2°42.893 8.7 195 8.5 101650 72
2002-04-16 08:18 51°10.588 2°42.544 9.1 193 8.6 101650 72
2002-04-16 08:19 51°10.485 2°42.195 8.7 188 8.6 101660 73
2002-04-16 08:20 51°10.381 2°41.849 8.8 191 8.6 101650 71
2002-04-16 08:21 51°10.277 2°41.504 7.4 187 8.6 101650 70
2002-04-16 08:22 51°10.173 2°41.16 8.3 189 8.6 101660 72
2002-04-16 08:23 51°10.071 2°40.815 8.7 190 8.6 101660 72
2002-04-16 08:24 51°9.968 2°40.47 8.5 189 8.6 101660 72
2002-04-16 08:25 51°9.864 2°40.128 6.9 184 8.6 101660 72
2002-04-16 08:26 51°9.762 2°39.783 9 188 8.6 101660 72
2002-04-16 08:27 51°9.66 2°39.44 10.3 192 8.6 101660 73
2002-04-16 08:28 51°9.56 2°39.095 8.8 191 8.6 101660 70
2002-04-16 08:29 51°9.473 2°38.739 8.1 196 8.6 101660 72
2002-04-16 08:30 51°9.387 2°38.381 8.8 195 8.7 101660 73
2002-04-16 08:31 51°9.302 2°38.023 10.8 196 8.7 101660 74
2002-04-16 08:32 51°9.217 2°37.665 9 195 8.6 101660 74
2002-04-16 08:33 51°9.132 2°37.308 8.7 198 8.6 101660 73
2002-04-16 08:34 51°9.05 2°36.949 8.7 202 8.6 101660 74
2002-04-16 08:35 51°8.967 2°36.591 8.5 186 8.6 101660 75
2002-04-16 08:36 51°8.889 2°36.231 10.4 191 8.6 101660 75
2002-04-16 08:37 51°8.814 2°35.866 9.5 196 8.6 101660 74
2002-04-16 08:38 51°8.733 2°35.495 9 195 8.6 101670 75
2002-04-16 08:39 51°8.649 2°35.117 9.6 196 8.6 101670 76
2002-04-16 08:40 51°8.565 2°34.738 8.1 196 8.6 101670 77
2002-04-16 08:41 51°8.481 2°34.361 8.9 201 8.6 101670 78
2002-04-16 08:42 51°8.368 2°34.006 6.2 186 8.6 101670 79
2002-04-16 08:43 51°8.202 2°33.713 5.5 184 8.5 101670 78
2002-04-16 08:44 51°8.061 2°33.497 4.6 149 8.5 101680 78
2002-04-16 08:45 51°7.967 2°33.393 2.5 115 8.6 101680 79
2002-04-16 08:46 51°7.893 2°33.329 3.5 118 8.7 101690 79
2002-04-16 08:47 51°7.842 2°33.246 4.3 151 8.7 101680 79
2002-04-16 08:48 51°7.813 2°33.157 4.5 170 8.7 101680 79
2002-04-16 08:49 51°7.803 2°33.078 5.3 193 8.8 101680 80
2002-04-16 08:50 51°7.802 2°32.992 5.4 208 8.7 101680 79
2002-04-16 08:51 51°7.817 2°32.903 6.9 214 8.6 101680 79
2002-04-16 08:52 51°7.841 2°32.813 7.2 215 8.6 101680 78
2002-04-16 08:53 51°7.862 2°32.73 6.4 219 8.6 101690 78
2002-04-16 08:54 51°7.871 2°32.659 5.7 204 8.7 101690 78
2002-04-16 08:55 51°7.863 2°32.589 5.3 174 8.7 101690 78
2002-04-16 08:56 51°7.842 2°32.529 4 134 8.6 101690 78
2002-04-16 08:57 51°7.818 2°32.479 4.5 136 8.7 101690 79
2002-04-16 08:58 51°7.794 2°32.438 4.1 126 8.7 101700 79
2002-04-16 08:59 51°7.77 2°32.402 4.4 128 8.7 101700 79
2002-04-16 09:00 51°7.748 2°32.37 5.1 120 8.7 101700 79
2002-04-16 09:01 51°7.726 2°32.338 5.1 113 8.7 101700 79
2002-04-16 09:02 51°7.703 2°32.307 4.5 113 8.7 101690 79
2002-04-16 09:03 51°7.68 2°32.275 5.1 121 8.7 101690 79
2002-04-16 09:04 51°7.656 2°32.242 4.8 123 8.7 101690 79
2002-04-16 09:05 51°7.631 2°32.208 4.9 133 8.7 101690 79
2002-04-16 09:06 51°7.608 2°32.174 4.5 144 8.7 101690 79
2002-04-16 09:07 51°7.585 2°32.138 4.7 146 8.7 101690 79
2002-04-16 09:08 51°7.563 2°32.102 4.5 157 8.7 101690 79
2002-04-16 09:09 51°7.541 2°32.065 4.5 146 8.7 101690 79
2002-04-16 09:10 51°7.519 2°32.029 4.1 146 8.8 101690 79
2002-04-16 09:11 51°7.498 2°31.993 4.7 157 8.8 101690 80
2002-04-16 09:12 51°7.478 2°31.953 5.1 168 8.7 101690 80
2002-04-16 09:13 51°7.461 2°31.899 4 177 8.8 101690 80
2002-04-16 09:14 51°7.447 2°31.837 5 196 8.8 101690 80
2002-04-16 09:15 51°7.441 2°31.775 5.4 216 8.7 101690 80
2002-04-16 09:16 51°7.44 2°31.719 5.7 226 8.7 101690 80
2002-04-16 09:17 51°7.449 2°31.672 6.1 248 8.7 101690 80
2002-04-16 09:18 51°7.465 2°31.645 6.2 275 8.7 101690 79
2002-04-16 09:19 51°7.489 2°31.661 5.8 280 8.7 101690 79
2002-04-16 09:20 51°7.517 2°31.696 5.4 282 8.8 101690 79
2002-04-16 09:21 51°7.537 2°31.726 5.9 287 8.8 101690 79
2002-04-16 09:22 51°7.546 2°31.758 5.2 301 8.8 101690 79
2002-04-16 09:23 51°7.544 2°31.794 3.5 312 8.9 101690 79
2002-04-16 09:24 51°7.533 2°31.833 2 322 8.8 101690 79
2002-04-16 09:25 51°7.513 2°31.873 0.3 332 8.9 101690 79
2002-04-16 09:26 51°7.483 2°31.905 3.3 335 8.8 101700 79
2002-04-16 09:27 51°7.442 2°31.935 1.9 23 8.8 101690 79
2002-04-16 09:28 51°7.359 2°31.868 4.9 181 8.9 101690 79
2002-04-16 09:29 51°7.375 2°31.732 6.9 238 8.9 101690 79
2002-04-16 09:30 51°7.416 2°31.698 6.8 250 8.9 101690 80
2002-04-16 09:31 51°7.436 2°31.683 6 261 8.9 101690 79
2002-04-16 09:32 51°7.466 2°31.679 6.4 254 8.9 101690 79
2002-04-16 09:33 51°7.554 2°31.706 8.8 259 8.9 101680 79
2002-04-16 09:34 51°7.684 2°31.834 11.2 254 8.9 101680 79
2002-04-16 09:35 51°7.86 2°31.982 12.1 255 8.9 101680 78
2002-04-16 09:36 51°8.038 2°32.131 12.6 260 8.9 101680 79
2002-04-16 09:37 51°8.199 2°32.312 11.6 265 8.9 101680 78
2002-04-16 09:38 51°8.364 2°32.484 11.4 257 8.9 101670 78
2002-04-16 09:39 51°8.528 2°32.653 11.7 256 8.9 101680 78
2002-04-16 09:40 51°8.694 2°32.822 10.8 257 8.8 101680 77
2002-04-16 09:41 51°8.854 2°32.995 11.7 263 8.8 101680 77
2002-04-16 09:42 51°9.013 2°33.171 11.3 268 8.8 101680 77
2002-04-16 09:43 51°9.174 2°33.351 11.3 261 8.8 101670 77
2002-04-16 09:44 51°9.333 2°33.532 12 261 8.8 101680 76
2002-04-16 09:45 51°9.489 2°33.727 11.6 267 8.7 101670 75
2002-04-16 09:46 51°9.646 2°33.933 11.2 270 8.7 101680 74
2002-04-16 09:47 51°9.789 2°34.16 11.3 267 8.7 101670 74
2002-04-16 09:48 51°9.935 2°34.387 11.7 271 8.7 101670 73
2002-04-16 09:49 51°10.081 2°34.612 11.1 265 8.7 101680 72
2002-04-16 09:50 51°10.228 2°34.841 10.7 266 8.7 101680 73
2002-04-16 09:51 51°10.37 2°35.069 10.6 262 8.7 101680 73
2002-04-16 09:52 51°10.516 2°35.29 10.4 265 8.8 101680 73
2002-04-16 09:53 51°10.665 2°35.506 11.6 264 8.7 101680 72
2002-04-16 09:54 51°10.818 2°35.713 11.3 270 8.7 101680 72
2002-04-16 09:55 51°10.97 2°35.922 11.1 265 8.7 101680 72
2002-04-16 09:56 51°11.13 2°36.115 12.1 262 8.8 101680 73
2002-04-16 09:57 51°11.298 2°36.291 11.5 262 8.8 101670 72
2002-04-16 09:58 51°11.464 2°36.469 12.6 260 8.8 101670 72
2002-04-16 09:59 51°11.639 2°36.627 12.3 259 8.8 101670 71
2002-04-16 10:00 51°11.81 2°36.793 11.3 260 8.8 101670 71
2002-04-16 10:01 51°11.983 2°36.954 11.7 262 8.8 101670 72
2002-04-16 10:02 51°12.155 2°37.118 11.5 260 8.8 101680 72
2002-04-16 10:03 51°12.327 2°37.278 10.5 261 8.8 101680 73
2002-04-16 10:04 51°12.499 2°37.441 12.1 265 8.8 101670 72
2002-04-16 10:05 51°12.671 2°37.604 12.3 261 8.8 101670 73
2002-04-16 10:06 51°12.844 2°37.767 10.9 268 8.8 101670 73
2002-04-16 10:07 51°13.017 2°37.931 10.9 263 8.8 101660 74
2002-04-16 10:08 51°13.19 2°38.091 10.6 261 8.8 101670 74
2002-04-16 10:09 51°13.363 2°38.255 10.3 258 8.8 101680 74
2002-04-16 10:10 51°13.536 2°38.419 11.3 263 8.8 101670 75
2002-04-16 10:11 51°13.71 2°38.585 11.3 265 8.8 101670 75
2002-04-16 10:12 51°13.899 2°38.692 12.2 247 8.8 101670 75
2002-04-16 10:13 51°14.101 2°38.63 12.4 233 8.8 101680 76
2002-04-16 10:14 51°14.277 2°38.421 12.7 231 8.8 101680 75
2002-04-16 10:15 51°14.367 2°38.092 10.8 212 8.8 101670 76
2002-04-16 10:16 51°14.281 2°37.73 8.8 190 8.8 101680 76
2002-04-16 10:17 51°14.117 2°37.425 7.7 193 8.6 101690 76
2002-04-16 10:18 51°13.957 2°37.109 4.4 196 8.6 101680 76
2002-04-16 10:19 51°13.808 2°36.776 7.8 198 8.5 101680 76
2002-04-16 10:20 51°13.658 2°36.452 9.5 195 8.5 101690 76
2002-04-16 10:21 51°13.509 2°36.123 9.4 199 8.5 101680 76
2002-04-16 10:22 51°13.358 2°35.796 7.8 191 8.4 101690 75
2002-04-16 10:23 51°13.208 2°35.477 8.2 191 8.5 101690 76
2002-04-16 10:24 51°13.059 2°35.155 8.8 198 8.5 101680 76
2002-04-16 10:25 51°12.906 2°34.838 8.5 189 8.5 101680 75
2002-04-16 10:26 51°12.753 2°34.523 8.4 195 8.5 101680 75
2002-04-16 10:27 51°12.599 2°34.211 8.2 190 8.5 101680 75
2002-04-16 10:28 51°12.434 2°33.918 5.6 185 8.5 101690 74
2002-04-16 10:29 51°12.239 2°33.678 6.7 186 8.5 101690 74
2002-04-16 10:30 51°12.047 2°33.44 6.4 192 8.5 101690 74
2002-04-16 10:31 51°11.853 2°33.197 6.9 192 8.5 101690 74
2002-04-16 10:32 51°11.661 2°32.955 6 180 8.5 101690 73
2002-04-16 10:33 51°11.469 2°32.717 6.4 187 8.6 101700 73
2002-04-16 10:34 51°11.269 2°32.496 5.6 179 8.6 101700 73
2002-04-16 10:35 51°11.085 2°32.443 1.4 323 8.6 101700 73
2002-04-16 10:36 51°11.045 2°32.546 4.2 300 8.7 101700 74
2002-04-16 10:37 51°11.069 2°32.603 5.9 281 8.7 101700 73
2002-04-16 10:38 51°11.091 2°32.616 5.5 279 8.7 101700 73
2002-04-16 10:39 51°11.104 2°32.62 5.9 271 8.8 101700 73
2002-04-16 10:40 51°11.13 2°32.636 6.8 276 8.8 101690 72
2002-04-16 10:41 51°11.166 2°32.694 6.8 290 8.8 101700 72
2002-04-16 10:42 51°11.193 2°32.757 6.5 284 8.8 101690 72
2002-04-16 10:43 51°11.217 2°32.808 6.2 287 8.8 101700 72
2002-04-16 10:44 51°11.237 2°32.855 6.2 290 8.9 101700 72
2002-04-16 10:45 51°11.254 2°32.898 5.7 294 8.9 101700 72
2002-04-16 10:46 51°11.273 2°32.935 5.3 285 9 101700 72
2002-04-16 10:47 51°11.293 2°32.97 6.4 284 9 101700 72
2002-04-16 10:48 51°11.313 2°33.011 6.1 288 9 101690 72
2002-04-16 10:49 51°11.332 2°33.06 6 288 8.9 101690 71
2002-04-16 10:50 51°11.349 2°33.112 6 287 8.9 101700 72
2002-04-16 10:51 51°11.369 2°33.155 6.2 289 9 101700 72
2002-04-16 10:52 51°11.391 2°33.197 6.7 279 9 101700 72
2002-04-16 10:53 51°11.415 2°33.237 6.4 278 9 101700 72
2002-04-16 10:54 51°11.438 2°33.274 5.6 283 9 101700 72
2002-04-16 10:55 51°11.462 2°33.31 5.5 284 9 101700 72
2002-04-16 10:56 51°11.487 2°33.345 5.6 281 9 101700 73
2002-04-16 10:57 51°11.511 2°33.375 5.8 273 9 101700 72
2002-04-16 10:58 51°11.536 2°33.409 6.7 282 8.9 101700 72
2002-04-16 10:59 51°11.556 2°33.452 6 290 9 101700 73
2002-04-16 11:00 51°11.574 2°33.498 5.9 293 8.9 101700 72
2002-04-16 11:01 51°11.594 2°33.541 6 283 9 101700 72
2002-04-16 11:02 51°11.614 2°33.582 5.5 282 8.9 101700 72
2002-04-16 11:03 51°11.635 2°33.622 5.6 280 9.1 101700 73
2002-04-16 11:04 51°11.659 2°33.66 5.1 282 9.1 101700 73
2002-04-16 11:05 51°11.682 2°33.698 5.7 288 9.1 101700 73
2002-04-16 11:06 51°11.702 2°33.745 5.6 294 9.1 101700 74
2002-04-16 11:07 51°11.718 2°33.795 5.4 293 9.1 101700 73
2002-04-16 11:08 51°11.734 2°33.846 5.2 287 9.1 101700 73
2002-04-16 11:09 51°11.757 2°33.886 4.8 279 9.1 101690 73
2002-04-16 11:10 51°11.782 2°33.919 5.6 278 9.1 101690 73
2002-04-16 11:11 51°11.809 2°33.952 6.5 281 9.1 101690 73
2002-04-16 11:12 51°11.835 2°33.99 5.7 289 9 101700 72
2002-04-16 11:13 51°11.855 2°34.033 5.3 293 9 101690 73
2002-04-16 11:14 51°11.871 2°34.074 5.5 290 9.1 101700 73
2002-04-16 11:15 51°11.884 2°34.114 5.9 291 9.1 101690 73
2002-04-16 11:16 51°11.894 2°34.154 6 297 9.1 101700 73
2002-04-16 11:17 51°11.901 2°34.188 5.2 296 9.1 101700 73
2002-04-16 11:18 51°11.906 2°34.22 5 295 9.2 101700 74
2002-04-16 11:19 51°11.908 2°34.255 3.6 306 9.2 101700 73
2002-04-16 11:20 51°11.905 2°34.306 5.6 303 9.1 101700 73
2002-04-16 11:21 51°11.969 2°34.375 8 242 9.1 101690 73
2002-04-16 11:22 51°12.043 2°34.308 7.9 233 9.1 101690 73
2002-04-16 11:23 51°12.107 2°34.266 6.7 249 9 101700 73
2002-04-16 11:24 51°12.227 2°34.294 11.2 243 9.1 101690 74
2002-04-16 11:25 51°12.434 2°34.318 11.5 248 9.1 101680 74
2002-04-16 11:26 51°12.645 2°34.344 11.6 246 9.1 101680 74
2002-04-16 11:27 51°12.853 2°34.366 12.3 244 9.1 101680 74
2002-04-16 11:28 51°13.064 2°34.391 12 244 9.1 101680 74
2002-04-16 11:29 51°13.27 2°34.422 11.7 250 9.1 101690 74
2002-04-16 11:30 51°13.482 2°34.426 11.8 231 9.1 101680 74
2002-04-16 11:31 51°13.696 2°34.366 12.7 238 9 101680 74
2002-04-16 11:32 51°13.911 2°34.318 11.4 245 8.9 101680 74
2002-04-16 11:33 51°14.123 2°34.265 12.1 235 8.9 101680 74
2002-04-16 11:34 51°14.334 2°34.211 11.4 248 8.9 101670 73
2002-04-16 11:35 51°14.545 2°34.157 11.7 245 9 101680 74
2002-04-16 11:36 51°14.753 2°34.096 12.5 246 9 101680 74
2002-04-16 11:37 51°14.96 2°34.035 11.3 247 9 101680 74
2002-04-16 11:38 51°15.166 2°33.965 11.2 244 8.9 101670 73
2002-04-16 11:39 51°15.37 2°33.887 11.2 240 9 101680 74
2002-04-16 11:40 51°15.574 2°33.815 11.4 242 8.9 101670 74
2002-04-16 11:41 51°15.77 2°33.701 11.2 237 8.9 101680 74
2002-04-16 11:42 51°15.956 2°33.548 10.4 231 8.9 101690 73
2002-04-16 11:43 51°16.143 2°33.403 11.1 231 8.9 101690 74
2002-04-16 11:44 51°16.331 2°33.241 11.8 235 8.9 101690 74
2002-04-16 11:45 51°16.539 2°33.126 12.4 237 8.9 101680 75
2002-04-16 11:46 51°16.749 2°33.041 12 244 8.8 101680 75
2002-04-16 11:47 51°16.964 2°33.036 11.6 245 8.8 101680 74
2002-04-16 11:48 51°17.172 2°32.989 12.4 236 8.9 101680 74
2002-04-16 11:49 51°17.322 2°32.744 11.6 232 8.8 101690 74
2002-04-16 11:50 51°17.473 2°32.486 12.1 228 8.8 101690 74
2002-04-16 11:51 51°17.594 2°32.19 11.8 221 8.9 101680 75
2002-04-16 11:52 51°17.683 2°31.86 11.9 225 8.8 101680 75
2002-04-16 11:53 51°17.8 2°31.556 11.7 223 8.8 101690 74
2002-04-16 11:54 51°17.928 2°31.263 12.7 226 8.8 101690 74
2002-04-16 11:55 51°18.062 2°30.973 12.4 225 8.8 101690 74
2002-04-16 11:56 51°18.159 2°30.793 8.5 233 8.8 101700 74
2002-04-16 11:57 51°18.239 2°30.688 7.5 240 8.8 101700 74
2002-04-16 11:58 51°18.308 2°30.59 7.5 236 8.8 101700 74
2002-04-16 11:59 51°18.37 2°30.482 7.4 239 8.8 101700 74
2002-04-16 12:00 51°18.427 2°30.423 6.4 247 8.8 101690 74
2002-04-16 12:01 51°18.464 2°30.403 5.8 264 8.9 101690 74
2002-04-16 12:02 51°18.489 2°30.388 4.7 246 8.9 101690 74
2002-04-16 12:03 51°18.506 2°30.362 5.4 235 8.9 101700 73
2002-04-16 12:04 51°18.519 2°30.314 4.3 210 8.9 101700 73
2002-04-16 12:05 51°18.516 2°30.249 4.5 170 8.9 101700 72
2002-04-16 12:06 51°18.495 2°30.173 4.6 169 8.9 101690 75
2002-04-16 12:07 51°18.465 2°30.093 4.5 161 8.8 101690 75
2002-04-16 12:08 51°18.432 2°30.02 4.6 154 8.7 101700 75
2002-04-16 12:09 51°18.397 2°29.957 3.6 145 8.7 101700 75
2002-04-16 12:10 51°18.365 2°29.908 4.1 144 8.7 101700 75
2002-04-16 12:11 51°18.337 2°29.866 3.7 144 8.7 101690 75
2002-04-16 12:12 51°18.312 2°29.831 4.1 141 8.8 101700 75
2002-04-16 12:13 51°18.289 2°29.799 3.8 146 8.8 101700 75
2002-04-16 12:14 51°18.268 2°29.773 3.4 151 8.8 101700 74
2002-04-16 12:15 51°18.249 2°29.749 4.2 151 8.8 101700 75
2002-04-16 12:16 51°18.232 2°29.727 4.1 158 8.9 101700 75
2002-04-16 12:17 51°18.216 2°29.709 4.3 166 8.9 101700 75
2002-04-16 12:18 51°18.2 2°29.691 4.4 163 8.9 101700 76
2002-04-16 12:19 51°18.184 2°29.677 4.2 163 8.8 101690 76
2002-04-16 12:20 51°18.172 2°29.627 4.3 193 8.8 101690 75
2002-04-16 12:21 51°18.177 2°29.528 5.6 204 8.7 101700 75
2002-04-16 12:22 51°18.209 2°29.433 6.1 220 8.7 101690 75
2002-04-16 12:23 51°18.265 2°29.393 6.2 237 8.7 101700 76
2002-04-16 12:24 51°18.326 2°29.411 5.8 255 8.8 101690 76
2002-04-16 12:25 51°18.377 2°29.482 5.5 279 8.9 101690 75
2002-04-16 12:26 51°18.404 2°29.582 5.7 295 8.9 101690 75
2002-04-16 12:27 51°18.412 2°29.691 3 315 9 101700 75
2002-04-16 12:28 51°18.394 2°29.786 2.7 20 9 101690 75
2002-04-16 12:29 51°18.357 2°29.834 2.4 47 9 101700 75
2002-04-16 12:30 51°18.318 2°29.849 2.7 70 9.1 101700 75
2002-04-16 12:31 51°18.282 2°29.845 3.5 105 9 101700 74
2002-04-16 12:32 51°18.25 2°29.83 3.6 107 9 101700 73
2002-04-16 12:33 51°18.219 2°29.811 3 123 8.9 101700 74
2002-04-16 12:34 51°18.192 2°29.786 3.2 135 8.9 101700 74
2002-04-16 12:35 51°18.17 2°29.759 4 144 9 101710 75
2002-04-16 12:36 51°18.146 2°29.721 3.8 137 9 101700 75
2002-04-16 12:37 51°18.119 2°29.679 3.8 141 9 101700 75
2002-04-16 12:38 51°18.09 2°29.636 3.3 133 9 101700 75
2002-04-16 12:39 51°18.06 2°29.594 2.9 133 9 101700 75
2002-04-16 12:40 51°18.027 2°29.559 4.3 123 9 101700 76
2002-04-16 12:41 51°17.995 2°29.525 4 119 8.9 101700 74
2002-04-16 12:42 51°17.966 2°29.49 3.5 140 8.9 101700 74
2002-04-16 12:43 51°17.939 2°29.453 4.4 144 8.9 101700 75
2002-04-16 12:44 51°17.915 2°29.415 4.4 147 9 101700 74
2002-04-16 12:45 51°17.899 2°29.383 3.8 151 8.9 101700 74
2002-04-16 12:46 51°17.891 2°29.365 4.6 152 8.9 101700 75
2002-04-16 12:47 51°17.885 2°29.355 3.7 159 8.8 101700 74
2002-04-16 12:48 51°17.879 2°29.347 3.7 157 8.8 101700 76
2002-04-16 12:49 51°17.871 2°29.326 4.3 153 8.8 101700 76
2002-04-16 12:50 51°17.851 2°29.3 3.9 121 8.8 101700 76
2002-04-16 12:51 51°17.797 2°29.322 1.6 353 8.8 101700 76
2002-04-16 12:52 51°17.76 2°29.467 5 287 8.8 101700 76
2002-04-16 12:53 51°17.698 2°29.777 6 267 8.9 101690 76
2002-04-16 12:54 51°17.595 2°30.109 6 264 9 101700 76
2002-04-16 12:55 51°17.492 2°30.442 5.5 268 9 101700 76
2002-04-16 12:56 51°17.381 2°30.767 5.6 266 9 101690 75
2002-04-16 12:57 51°17.267 2°31.1 5.4 277 9.1 101700 75
2002-04-16 12:58 51°17.161 2°31.425 5.9 270 9.1 101700 75
2002-04-16 12:59 51°17.056 2°31.758 5.6 262 9.1 101690 75
2002-04-16 13:00 51°16.95 2°32.09 5.4 277 9.2 101690 76
2002-04-16 13:01 51°16.842 2°32.43 5.7 266 9.2 101690 76
2002-04-16 13:02 51°16.735 2°32.762 7.4 276 9.2 101700 75
2002-04-16 13:03 51°16.625 2°33.107 6.2 263 9.1 101690 76
2002-04-16 13:04 51°16.518 2°33.451 5.4 276 9.2 101690 76
2002-04-16 13:05 51°16.408 2°33.792 5.2 264 9.2 101690 76
2002-04-16 13:06 51°16.292 2°34.146 5.9 261 9.1 101690 76
2002-04-16 13:07 51°16.177 2°34.501 5.7 261 9.2 101690 76
2002-04-16 13:08 51°16.065 2°34.849 5.5 269 9.2 101690 77
2002-04-16 13:09 51°15.968 2°35.202 5.8 265 9.2 101690 77
2002-04-16 13:10 51°15.89 2°35.574 6 262 9.2 101690 77
2002-04-16 13:11 51°15.805 2°35.917 5.8 273 9.2 101690 77
2002-04-16 13:12 51°15.721 2°36.271 5.8 270 9.2 101690 77
2002-04-16 13:13 51°15.639 2°36.617 6.1 268 9.1 101690 77
2002-04-16 13:14 51°15.555 2°36.974 5.2 272 9.1 101700 77
2002-04-16 13:15 51°15.466 2°37.335 5.5 264 9.1 101690 77
2002-04-16 13:16 51°15.384 2°37.707 4.8 263 9.1 101690 77
2002-04-16 13:17 51°15.329 2°38.101 6.9 261 9.1 101680 78
2002-04-16 13:18 51°15.314 2°38.496 8.4 270 9.1 101690 78
2002-04-16 13:19 51°15.294 2°38.891 6.6 266 9.1 101680 78
2002-04-16 13:20 51°15.261 2°39.279 6.9 263 9.1 101690 78
2002-04-16 13:21 51°15.234 2°39.669 8 274 9.1 101680 78
2002-04-16 13:22 51°15.201 2°40.059 7.5 268 9.1 101690 79
2002-04-16 13:23 51°15.168 2°40.436 7 265 9.1 101680 79
2002-04-16 13:24 51°15.131 2°40.819 7.3 265 9 101690 78
2002-04-16 13:25 51°15.094 2°41.211 6.6 273 9 101680 79
2002-04-16 13:26 51°15.057 2°41.597 6.7 269 9 101680 79
2002-04-16 13:27 51°15.023 2°41.979 6.4 272 9 101680 79
2002-04-16 13:28 51°14.99 2°42.369 7.6 270 9 101680 79
2002-04-16 13:29 51°14.963 2°42.761 6.1 262 9 101690 79
2002-04-16 13:30 51°14.935 2°43.161 6.6 267 9 101690 79
2002-04-16 13:31 51°14.912 2°43.561 7.8 269 9 101690 79
2002-04-16 13:32 51°14.889 2°43.954 7.3 270 9 101680 79
2002-04-16 13:33 51°14.865 2°44.354 7.5 270 9 101680 79
2002-04-16 13:34 51°14.841 2°44.759 7.7 270 9 101680 79
2002-04-16 13:35 51°14.817 2°45.158 7.4 267 9 101680 80
2002-04-16 13:36 51°14.808 2°45.552 8.7 266 9 101680 80
2002-04-16 13:37 51°14.814 2°45.961 7.7 269 9 101680 80
2002-04-16 13:38 51°14.814 2°46.352 8.6 263 9 101680 80
2002-04-16 13:39 51°14.814 2°46.748 8.1 272 8.9 101660 79
2002-04-16 13:40 51°14.815 2°47.145 7.6 269 8.9 101680 80
2002-04-16 13:41 51°14.819 2°47.544 8.7 268 8.9 101680 79
2002-04-16 13:42 51°14.815 2°47.947 9.7 274 8.9 101670 79
2002-04-16 13:43 51°14.808 2°48.35 7.5 264 8.9 101670 79
2002-04-16 13:44 51°14.804 2°48.752 8.7 272 8.9 101670 79
2002-04-16 13:45 51°14.8 2°49.157 9.2 273 8.9 101670 79
2002-04-16 13:46 51°14.796 2°49.548 7.3 270 8.9 101680 79
2002-04-16 13:47 51°14.793 2°49.953 8 271 8.9 101670 79
2002-04-16 13:48 51°14.788 2°50.348 8.4 273 8.9 101670 79
2002-04-16 13:49 51°14.783 2°50.755 8.2 272 8.8 101660 79
2002-04-16 13:50 51°14.778 2°51.145 7.9 271 8.9 101660 79
2002-04-16 13:51 51°14.772 2°51.539 7.3 277 8.9 101670 79
2002-04-16 13:52 51°14.766 2°51.932 8.7 269 8.9 101670 80
2002-04-16 13:53 51°14.758 2°52.321 8.4 271 8.9 101670 79
2002-04-16 13:54 51°14.752 2°52.712 9.4 276 8.8 101660 79
2002-04-16 13:55 51°14.742 2°53.101 7.7 278 8.8 101660 78
2002-04-16 13:56 51°14.705 2°53.488 6.6 272 8.8 101670 79
2002-04-16 13:57 51°14.647 2°53.859 9.2 287 8.8 101670 79
2002-04-16 13:58 51°14.577 2°54.226 6.4 280 8.8 101670 78
2002-04-16 13:59 51°14.499 2°54.561 5.8 287 8.8 101670 78
2002-04-16 14:00 51°14.417 2°54.874 6 293 8.8 101670 78
2002-04-16 14:01 51°14.316 2°55.143 3.2 309 8.8 101670 78
2002-04-16 14:02 51°14.229 2°55.301 0.9 321 8.9 101680 78
2002-04-16 14:03 51°14.142 2°55.392 1.1 345 8.9 101680 78
2002-04-16 14:04 51°14.057 2°55.46 1.7 75 9 101680 78
2002-04-16 14:05 51°13.974 2°55.524 1.8 15 9.1 101670 78
2002-04-16 14:06 51°13.892 2°55.587 2 92 9.1 101680 77
2002-04-16 14:07 51°13.818 2°55.64 2.3 46 9.1 101680 76
2002-04-16 14:08 51°13.769 2°55.687 3.9 11 9.1 101670 76
2002-04-16 14:09 51°13.739 2°55.742 1.9 337 9.2 101670 76
2002-04-16 14:10 51°13.714 2°55.8 3.4 4 9.1 101670 76
2002-04-16 14:11 51°13.698 2°55.859 2.2 350 9 101670 76
2002-04-16 14:12 51°13.694 2°55.886 3.3 28 9.1 101670 76
2002-04-16 14:13 51°13.693 2°55.892 4.5 9 9.1 101670 76
2002-04-16 14:15 51°13.69 2°55.897 3.4   9.1 101670 75